Aniak Airport
PANI : now visible

Airfield :











YOU CAN JOIN US ON...

 
LOGIN :

Register | Disclaimer

   EN    FR    IT 

 









Legend :    VFR   Marginal VFR   IFR   Intensive IFR   Very Intensive IFR
Visi :
Ceiling :
>= 8 km
>= 3000ft
5 to 8 km
1000 to 3000 ft
1500m to 5 km
500 to 1000 ft
800 to 1500m
200 to 500 ft
< 800m
< 200 ft
Symbols :   Thunderstorms  Fog  Heavy snow  Heavy precipitations  Wind > 20 kt






- Airport Elevation : 88 ft
- IATA code : ANI


PANI - Aniak

CURRENT METAR :
  • 031656Z AUTO VRB04KT 10SM OVC008 M02/M03 A3019 RMK AO2 SNE50 SLP226 P0001 T10221028 FZRANO

EXPIRED METARs :
  • 031635Z AUTO 13005KT 3SM -SN BR OVC008 M02/M03 A3019 RMK AO2 CIG 007V012 P0001 FZRANO
  • 031610Z AUTO 12006KT 1SM -SN BR OVC010 M03/M03 A3019 RMK AO2 P0001 FZRANO
  • 031601Z AUTO 13005KT 1 1/4SM -SN BR OVC010 M03/M03 A3018 RMK AO2 CIG 008V012 P0000 FZRANO
  • 031547Z AUTO 12007KT 2 1/2SM -SN BR OVC008 M02/M03 A3018 RMK AO2 P0000 FZRANO
  • 031456Z AUTO 12005KT 9SM -SN OVC008 M03/M03 A3018 RMK AO2 SNE10B28 SLP222 P0000 60000 T10281033 51009 FZRANO

TAF N/A



MET'MAP, your aeronautical weather chart ! - Copyright ORBIFLY December 2007 - Disclaimer

ORBIFLY MET'MAP TEAM :

Programming & Development : Alexandra Zaïnal
Concept & original design : Baudouin d'Aumeries
Assistance for programming : Marc-Olivier Méhu
Technical & hardware support : Manuel Goepfert

Contact : metmap@orbifly.com




SOURCES & CREDITS :

   NOAA       Earth
Advisory